sensor_id;sensor_type;location;lat;lon;timestamp;P1;durP1;ratioP1;P2;durP2;ratioP2
24739;SDS011;45234;48.148;17.128;2022-07-21T00:00:19;8.38;;;4.07;;
24739;SDS011;45234;48.148;17.128;2022-07-21T00:02:48;9.50;;;4.32;;
24739;SDS011;45234;48.148;17.128;2022-07-21T00:05:15;8.35;;;4.45;;
24739;SDS011;45234;48.148;17.128;2022-07-21T00:07:43;5.22;;;4.10;;
24739;SDS011;45234;48.148;17.128;2022-07-21T00:10:10;7.47;;;3.97;;
24739;SDS011;45234;48.148;17.128;2022-07-21T00:12:38;8.50;;;3.78;;
24739;SDS011;45234;48.148;17.128;2022-07-21T00:15:06;6.43;;;3.60;;
24739;SDS011;45234;48.148;17.128;2022-07-21T00:17:34;6.88;;;4.03;;
24739;SDS011;45234;48.148;17.128;2022-07-21T00:20:01;7.00;;;4.00;;
24739;SDS011;45234;48.148;17.128;2022-07-21T00:22:30;7.43;;;4.63;;
24739;SDS011;45234;48.148;17.128;2022-07-21T00:24:58;8.77;;;4.25;;
24739;SDS011;45234;48.148;17.128;2022-07-21T00:27:25;6.85;;;4.00;;
24739;SDS011;45234;48.148;17.128;2022-07-21T00:29:55;5.18;;;4.07;;
24739;SDS011;45234;48.148;17.128;2022-07-21T00:32:22;8.30;;;5.40;;
24739;SDS011;45234;48.148;17.128;2022-07-21T00:34:49;11.68;;;5.75;;
24739;SDS011;45234;48.148;17.128;2022-07-21T00:37:17;11.57;;;6.63;;
24739;SDS011;45234;48.148;17.128;2022-07-21T00:39:44;8.77;;;5.30;;
24739;SDS011;45234;48.148;17.128;2022-07-21T00:42:20;10.60;;;5.47;;
24739;SDS011;45234;48.148;17.128;2022-07-21T00:44:48;8.45;;;5.20;;
24739;SDS011;45234;48.148;17.128;2022-07-21T00:47:15;14.95;;;8.13;;
24739;SDS011;45234;48.148;17.128;2022-07-21T00:49:45;11.00;;;6.97;;
24739;SDS011;45234;48.148;17.128;2022-07-21T00:52:13;11.77;;;7.90;;
24739;SDS011;45234;48.148;17.128;2022-07-21T00:54:40;16.60;;;8.65;;
24739;SDS011;45234;48.148;17.128;2022-07-21T00:57:08;11.18;;;7.65;;
24739;SDS011;45234;48.148;17.128;2022-07-21T00:59:36;8.88;;;7.40;;
24739;SDS011;45234;48.148;17.128;2022-07-21T01:02:04;13.65;;;6.97;;
24739;SDS011;45234;48.148;17.128;2022-07-21T01:04:31;9.68;;;7.05;;
24739;SDS011;45234;48.148;17.128;2022-07-21T01:07:03;11.60;;;6.97;;
24739;SDS011;45234;48.148;17.128;2022-07-21T01:09:31;14.93;;;7.60;;
24739;SDS011;45234;48.148;17.128;2022-07-21T01:11:59;12.85;;;8.13;;
24739;SDS011;45234;48.148;17.128;2022-07-21T01:14:27;11.20;;;7.80;;
24739;SDS011;45234;48.148;17.128;2022-07-21T01:16:55;12.45;;;7.40;;
24739;SDS011;45234;48.148;17.128;2022-07-21T01:19:24;10.73;;;7.57;;
24739;SDS011;45234;48.148;17.128;2022-07-21T01:21:51;10.80;;;7.47;;
24739;SDS011;45234;48.148;17.128;2022-07-21T01:24:18;10.50;;;7.85;;
24739;SDS011;45234;48.148;17.128;2022-07-21T01:26:47;11.82;;;7.28;;
24739;SDS011;45234;48.148;17.128;2022-07-21T01:29:18;10.15;;;8.05;;
24739;SDS011;45234;48.148;17.128;2022-07-21T01:31:46;12.43;;;8.05;;
24739;SDS011;45234;48.148;17.128;2022-07-21T01:34:14;9.65;;;7.75;;
24739;SDS011;45234;48.148;17.128;2022-07-21T01:36:42;11.15;;;8.27;;
24739;SDS011;45234;48.148;17.128;2022-07-21T01:39:09;8.95;;;7.70;;
24739;SDS011;45234;48.148;17.128;2022-07-21T01:42:00;9.70;;;6.68;;
24739;SDS011;45234;48.148;17.128;2022-07-21T01:44:27;9.88;;;7.28;;
24739;SDS011;45234;48.148;17.128;2022-07-21T01:46:54;8.65;;;6.43;;
24739;SDS011;45234;48.148;17.128;2022-07-21T01:49:21;8.13;;;6.20;;
24739;SDS011;45234;48.148;17.128;2022-07-21T01:51:49;6.85;;;5.13;;
24739;SDS011;45234;48.148;17.128;2022-07-21T01:54:17;6.80;;;4.40;;
24739;SDS011;45234;48.148;17.128;2022-07-21T01:56:49;6.70;;;4.60;;
24739;SDS011;45234;48.148;17.128;2022-07-21T01:59:17;6.03;;;4.88;;
24739;SDS011;45234;48.148;17.128;2022-07-21T02:01:44;5.68;;;4.90;;
24739;SDS011;45234;48.148;17.128;2022-07-21T02:04:12;7.28;;;4.43;;
24739;SDS011;45234;48.148;17.128;2022-07-21T02:06:39;6.15;;;4.22;;
24739;SDS011;45234;48.148;17.128;2022-07-21T02:09:06;4.72;;;4.07;;
24739;SDS011;45234;48.148;17.128;2022-07-21T02:11:34;8.45;;;4.93;;
24739;SDS011;45234;48.148;17.128;2022-07-21T02:14:01;5.63;;;4.70;;
24739;SDS011;45234;48.148;17.128;2022-07-21T02:16:30;10.95;;;5.13;;
24739;SDS011;45234;48.148;17.128;2022-07-21T02:18:57;6.40;;;4.00;;
24739;SDS011;45234;48.148;17.128;2022-07-21T02:21:25;6.82;;;4.72;;
24739;SDS011;45234;48.148;17.128;2022-07-21T02:23:52;8.70;;;4.95;;
24739;SDS011;45234;48.148;17.128;2022-07-21T02:26:19;6.35;;;5.32;;
24739;SDS011;45234;48.148;17.128;2022-07-21T02:28:46;7.95;;;5.43;;
24739;SDS011;45234;48.148;17.128;2022-07-21T02:31:14;7.22;;;5.45;;
24739;SDS011;45234;48.148;17.128;2022-07-21T02:33:41;7.43;;;5.20;;
24739;SDS011;45234;48.148;17.128;2022-07-21T02:36:08;9.65;;;6.10;;
24739;SDS011;45234;48.148;17.128;2022-07-21T02:38:36;6.72;;;5.75;;
24739;SDS011;45234;48.148;17.128;2022-07-21T02:41:03;10.93;;;6.70;;
24739;SDS011;45234;48.148;17.128;2022-07-21T02:43:30;8.02;;;6.10;;
24739;SDS011;45234;48.148;17.128;2022-07-21T02:45:57;11.30;;;6.35;;
24739;SDS011;45234;48.148;17.128;2022-07-21T02:48:25;10.88;;;7.05;;
24739;SDS011;45234;48.148;17.128;2022-07-21T02:50:52;10.43;;;6.50;;
24739;SDS011;45234;48.148;17.128;2022-07-21T02:53:19;11.00;;;6.85;;
24739;SDS011;45234;48.148;17.128;2022-07-21T02:55:49;11.38;;;7.30;;
24739;SDS011;45234;48.148;17.128;2022-07-21T02:58:19;11.13;;;7.63;;
24739;SDS011;45234;48.148;17.128;2022-07-21T03:03:23;7.90;;;6.15;;
24739;SDS011;45234;48.148;17.128;2022-07-21T03:05:53;8.57;;;6.25;;
24739;SDS011;45234;48.148;17.128;2022-07-21T03:08:20;8.73;;;6.57;;
24739;SDS011;45234;48.148;17.128;2022-07-21T03:10:48;7.80;;;6.68;;
24739;SDS011;45234;48.148;17.128;2022-07-21T03:13:15;9.63;;;6.78;;
24739;SDS011;45234;48.148;17.128;2022-07-21T03:15:42;10.25;;;7.22;;
24739;SDS011;45234;48.148;17.128;2022-07-21T03:18:10;8.30;;;6.53;;
24739;SDS011;45234;48.148;17.128;2022-07-21T03:20:38;8.48;;;6.70;;
24739;SDS011;45234;48.148;17.128;2022-07-21T03:23:06;10.13;;;6.93;;
24739;SDS011;45234;48.148;17.128;2022-07-21T03:25:33;11.23;;;7.20;;
24739;SDS011;45234;48.148;17.128;2022-07-21T03:28:01;9.25;;;7.53;;
24739;SDS011;45234;48.148;17.128;2022-07-21T03:30:29;8.82;;;7.85;;
24739;SDS011;45234;48.148;17.128;2022-07-21T03:32:56;9.90;;;7.63;;
24739;SDS011;45234;48.148;17.128;2022-07-21T03:35:24;9.90;;;8.20;;
24739;SDS011;45234;48.148;17.128;2022-07-21T03:37:53;12.80;;;8.07;;
24739;SDS011;45234;48.148;17.128;2022-07-21T03:40:29;9.02;;;7.55;;
24739;SDS011;45234;48.148;17.128;2022-07-21T03:43:01;10.50;;;7.72;;
24739;SDS011;45234;48.148;17.128;2022-07-21T03:45:30;8.85;;;7.95;;
24739;SDS011;45234;48.148;17.128;2022-07-21T03:48:00;8.38;;;7.30;;
24739;SDS011;45234;48.148;17.128;2022-07-21T03:50:30;14.80;;;7.78;;
24739;SDS011;45234;48.148;17.128;2022-07-21T03:52:59;9.57;;;7.20;;
24739;SDS011;45234;48.148;17.128;2022-07-21T03:55:27;10.48;;;7.72;;
24739;SDS011;45234;48.148;17.128;2022-07-21T03:57:57;11.32;;;7.88;;
24739;SDS011;45234;48.148;17.128;2022-07-21T04:00:28;10.45;;;7.32;;
24739;SDS011;45234;48.148;17.128;2022-07-21T04:03:04;8.95;;;6.50;;
24739;SDS011;45234;48.148;17.128;2022-07-21T04:05:32;9.07;;;7.05;;
24739;SDS011;45234;48.148;17.128;2022-07-21T04:07:59;8.68;;;6.88;;
24739;SDS011;45234;48.148;17.128;2022-07-21T04:10:29;7.57;;;6.47;;
24739;SDS011;45234;48.148;17.128;2022-07-21T04:13:00;8.93;;;6.55;;
24739;SDS011;45234;48.148;17.128;2022-07-21T04:15:30;13.05;;;7.15;;
24739;SDS011;45234;48.148;17.128;2022-07-21T04:17:57;9.30;;;6.30;;
24739;SDS011;45234;48.148;17.128;2022-07-21T04:20:24;10.40;;;6.47;;
24739;SDS011;45234;48.148;17.128;2022-07-21T04:22:52;6.72;;;5.90;;
24739;SDS011;45234;48.148;17.128;2022-07-21T04:25:20;7.18;;;5.53;;
24739;SDS011;45234;48.148;17.128;2022-07-21T04:27:49;5.63;;;4.82;;
24739;SDS011;45234;48.148;17.128;2022-07-21T04:30:17;6.32;;;5.22;;
24739;SDS011;45234;48.148;17.128;2022-07-21T04:32:46;7.15;;;4.88;;
24739;SDS011;45234;48.148;17.128;2022-07-21T04:35:14;9.32;;;5.80;;
24739;SDS011;45234;48.148;17.128;2022-07-21T04:37:41;6.03;;;4.53;;
24739;SDS011;45234;48.148;17.128;2022-07-21T04:40:09;7.93;;;5.32;;
24739;SDS011;45234;48.148;17.128;2022-07-21T04:42:38;6.72;;;5.63;;
24739;SDS011;45234;48.148;17.128;2022-07-21T04:45:06;9.65;;;5.68;;
24739;SDS011;45234;48.148;17.128;2022-07-21T04:47:45;7.00;;;5.78;;
24739;SDS011;45234;48.148;17.128;2022-07-21T04:50:21;8.50;;;6.15;;
24739;SDS011;45234;48.148;17.128;2022-07-21T04:52:50;10.50;;;6.38;;
24739;SDS011;45234;48.148;17.128;2022-07-21T04:55:18;8.65;;;6.07;;
24739;SDS011;45234;48.148;17.128;2022-07-21T04:57:47;9.57;;;5.78;;
24739;SDS011;45234;48.148;17.128;2022-07-21T05:00:20;8.85;;;6.15;;
24739;SDS011;45234;48.148;17.128;2022-07-21T05:02:49;8.15;;;6.45;;
24739;SDS011;45234;48.148;17.128;2022-07-21T05:05:17;10.23;;;6.22;;
24739;SDS011;45234;48.148;17.128;2022-07-21T05:07:45;10.15;;;6.70;;
24739;SDS011;45234;48.148;17.128;2022-07-21T05:10:14;6.57;;;5.75;;
24739;SDS011;45234;48.148;17.128;2022-07-21T05:12:43;8.55;;;7.13;;
24739;SDS011;45234;48.148;17.128;2022-07-21T05:15:11;23.88;;;7.45;;
24739;SDS011;45234;48.148;17.128;2022-07-21T05:17:40;14.80;;;6.78;;
24739;SDS011;45234;48.148;17.128;2022-07-21T05:20:08;7.38;;;6.50;;
24739;SDS011;45234;48.148;17.128;2022-07-21T05:22:36;12.05;;;6.55;;
24739;SDS011;45234;48.148;17.128;2022-07-21T05:25:04;10.73;;;5.47;;
24739;SDS011;45234;48.148;17.128;2022-07-21T05:27:33;9.82;;;5.90;;
24739;SDS011;45234;48.148;17.128;2022-07-21T05:30:00;5.38;;;4.57;;
24739;SDS011;45234;48.148;17.128;2022-07-21T05:32:29;7.25;;;4.70;;
24739;SDS011;45234;48.148;17.128;2022-07-21T05:34:56;6.82;;;4.80;;
24739;SDS011;45234;48.148;17.128;2022-07-21T05:37:23;7.22;;;4.57;;
24739;SDS011;45234;48.148;17.128;2022-07-21T05:39:51;10.48;;;4.82;;
24739;SDS011;45234;48.148;17.128;2022-07-21T05:42:18;8.15;;;3.78;;
24739;SDS011;45234;48.148;17.128;2022-07-21T05:44:45;8.48;;;4.85;;
24739;SDS011;45234;48.148;17.128;2022-07-21T05:47:12;8.85;;;4.47;;
24739;SDS011;45234;48.148;17.128;2022-07-21T05:49:40;7.35;;;4.63;;
24739;SDS011;45234;48.148;17.128;2022-07-21T05:52:07;11.45;;;5.03;;
24739;SDS011;45234;48.148;17.128;2022-07-21T05:54:34;9.30;;;4.63;;
24739;SDS011;45234;48.148;17.128;2022-07-21T05:57:03;9.90;;;4.38;;
24739;SDS011;45234;48.148;17.128;2022-07-21T05:59:31;9.50;;;4.78;;
24739;SDS011;45234;48.148;17.128;2022-07-21T06:01:59;9.90;;;4.82;;
24739;SDS011;45234;48.148;17.128;2022-07-21T06:04:26;8.40;;;4.35;;
24739;SDS011;45234;48.148;17.128;2022-07-21T06:06:54;6.60;;;3.85;;
24739;SDS011;45234;48.148;17.128;2022-07-21T06:09:22;7.20;;;4.18;;
24739;SDS011;45234;48.148;17.128;2022-07-21T06:11:51;9.32;;;4.40;;
24739;SDS011;45234;48.148;17.128;2022-07-21T06:14:18;8.38;;;4.80;;
24739;SDS011;45234;48.148;17.128;2022-07-21T06:16:45;7.32;;;4.47;;
24739;SDS011;45234;48.148;17.128;2022-07-21T06:19:12;6.63;;;4.03;;
24739;SDS011;45234;48.148;17.128;2022-07-21T06:21:39;7.68;;;4.30;;
24739;SDS011;45234;48.148;17.128;2022-07-21T06:24:12;8.35;;;4.53;;
24739;SDS011;45234;48.148;17.128;2022-07-21T06:26:39;9.70;;;4.38;;
24739;SDS011;45234;48.148;17.128;2022-07-21T06:29:06;7.95;;;4.97;;
24739;SDS011;45234;48.148;17.128;2022-07-21T06:31:34;11.65;;;4.70;;
24739;SDS011;45234;48.148;17.128;2022-07-21T06:34:01;8.98;;;4.70;;
24739;SDS011;45234;48.148;17.128;2022-07-21T06:36:28;9.73;;;5.03;;
24739;SDS011;45234;48.148;17.128;2022-07-21T06:38:55;8.30;;;5.22;;
24739;SDS011;45234;48.148;17.128;2022-07-21T06:41:22;6.22;;;4.85;;
24739;SDS011;45234;48.148;17.128;2022-07-21T06:43:49;5.45;;;4.80;;
24739;SDS011;45234;48.148;17.128;2022-07-21T06:46:17;10.18;;;5.45;;
24739;SDS011;45234;48.148;17.128;2022-07-21T06:48:44;6.80;;;4.85;;
24739;SDS011;45234;48.148;17.128;2022-07-21T06:51:11;7.95;;;4.75;;
24739;SDS011;45234;48.148;17.128;2022-07-21T06:53:39;8.27;;;4.68;;
24739;SDS011;45234;48.148;17.128;2022-07-21T06:56:08;7.85;;;4.88;;
24739;SDS011;45234;48.148;17.128;2022-07-21T06:58:35;7.75;;;4.78;;
24739;SDS011;45234;48.148;17.128;2022-07-21T07:01:05;6.47;;;4.70;;
24739;SDS011;45234;48.148;17.128;2022-07-21T07:03:33;5.53;;;4.22;;
24739;SDS011;45234;48.148;17.128;2022-07-21T07:06:01;10.52;;;4.80;;
24739;SDS011;45234;48.148;17.128;2022-07-21T07:08:29;5.50;;;4.78;;
24739;SDS011;45234;48.148;17.128;2022-07-21T07:10:57;6.25;;;5.18;;
24739;SDS011;45234;48.148;17.128;2022-07-21T07:13:24;6.50;;;4.95;;
24739;SDS011;45234;48.148;17.128;2022-07-21T07:16:11;6.55;;;5.30;;
24739;SDS011;45234;48.148;17.128;2022-07-21T07:18:39;10.18;;;5.63;;
24739;SDS011;45234;48.148;17.128;2022-07-21T07:21:06;8.82;;;5.32;;
24739;SDS011;45234;48.148;17.128;2022-07-21T07:23:37;6.05;;;4.72;;
24739;SDS011;45234;48.148;17.128;2022-07-21T07:26:05;8.98;;;4.93;;
24739;SDS011;45234;48.148;17.128;2022-07-21T07:28:33;7.88;;;4.82;;
24739;SDS011;45234;48.148;17.128;2022-07-21T07:31:00;13.80;;;5.28;;
24739;SDS011;45234;48.148;17.128;2022-07-21T07:33:27;6.90;;;5.13;;
24739;SDS011;45234;48.148;17.128;2022-07-21T07:35:54;6.25;;;5.65;;
24739;SDS011;45234;48.148;17.128;2022-07-21T07:38:22;5.57;;;5.10;;
24739;SDS011;45234;48.148;17.128;2022-07-21T07:40:49;6.28;;;5.75;;
24739;SDS011;45234;48.148;17.128;2022-07-21T07:43:16;9.02;;;4.97;;
24739;SDS011;45234;48.148;17.128;2022-07-21T07:45:44;8.23;;;5.95;;
24739;SDS011;45234;48.148;17.128;2022-07-21T07:48:11;12.65;;;5.90;;
24739;SDS011;45234;48.148;17.128;2022-07-21T07:50:38;11.30;;;5.43;;
24739;SDS011;45234;48.148;17.128;2022-07-21T07:53:05;12.95;;;5.85;;
24739;SDS011;45234;48.148;17.128;2022-07-21T07:55:32;7.22;;;5.45;;
24739;SDS011;45234;48.148;17.128;2022-07-21T07:58:00;18.45;;;5.53;;
24739;SDS011;45234;48.148;17.128;2022-07-21T08:00:27;13.63;;;5.22;;
24739;SDS011;45234;48.148;17.128;2022-07-21T08:03:14;11.27;;;5.68;;
24739;SDS011;45234;48.148;17.128;2022-07-21T08:05:42;7.45;;;4.60;;
24739;SDS011;45234;48.148;17.128;2022-07-21T08:08:09;6.05;;;4.63;;
24739;SDS011;45234;48.148;17.128;2022-07-21T08:10:36;11.05;;;4.70;;
24739;SDS011;45234;48.148;17.128;2022-07-21T08:13:08;5.88;;;5.38;;
24739;SDS011;45234;48.148;17.128;2022-07-21T08:15:37;13.10;;;5.57;;
24739;SDS011;45234;48.148;17.128;2022-07-21T08:18:04;9.73;;;5.10;;
24739;SDS011;45234;48.148;17.128;2022-07-21T08:20:33;10.55;;;5.13;;
24739;SDS011;45234;48.148;17.128;2022-07-21T08:23:01;14.57;;;4.70;;
24739;SDS011;45234;48.148;17.128;2022-07-21T08:25:28;7.93;;;4.57;;
24739;SDS011;45234;48.148;17.128;2022-07-21T08:27:55;7.60;;;4.05;;
24739;SDS011;45234;48.148;17.128;2022-07-21T08:30:24;10.65;;;4.47;;
24739;SDS011;45234;48.148;17.128;2022-07-21T08:32:56;6.75;;;3.85;;
24739;SDS011;45234;48.148;17.128;2022-07-21T08:35:24;9.77;;;3.85;;
24739;SDS011;45234;48.148;17.128;2022-07-21T08:37:55;10.63;;;4.15;;
24739;SDS011;45234;48.148;17.128;2022-07-21T08:40:26;5.88;;;3.80;;
24739;SDS011;45234;48.148;17.128;2022-07-21T08:42:54;6.28;;;4.47;;
24739;SDS011;45234;48.148;17.128;2022-07-21T08:45:22;6.65;;;3.78;;
24739;SDS011;45234;48.148;17.128;2022-07-21T08:47:51;8.10;;;3.70;;
24739;SDS011;45234;48.148;17.128;2022-07-21T08:50:31;6.10;;;4.03;;
24739;SDS011;45234;48.148;17.128;2022-07-21T08:53:00;4.35;;;3.75;;
24739;SDS011;45234;48.148;17.128;2022-07-21T08:55:29;8.02;;;3.78;;
24739;SDS011;45234;48.148;17.128;2022-07-21T08:57:57;4.93;;;3.40;;
24739;SDS011;45234;48.148;17.128;2022-07-21T09:00:25;6.38;;;3.40;;
24739;SDS011;45234;48.148;17.128;2022-07-21T09:03:09;6.45;;;3.40;;
24739;SDS011;45234;48.148;17.128;2022-07-21T09:05:39;5.28;;;3.58;;
24739;SDS011;45234;48.148;17.128;2022-07-21T09:08:08;5.47;;;3.50;;
24739;SDS011;45234;48.148;17.128;2022-07-21T09:10:35;6.13;;;3.60;;
24739;SDS011;45234;48.148;17.128;2022-07-21T09:13:06;5.72;;;3.33;;
24739;SDS011;45234;48.148;17.128;2022-07-21T09:15:33;6.32;;;3.13;;
24739;SDS011;45234;48.148;17.128;2022-07-21T09:20:37;5.95;;;3.20;;
24739;SDS011;45234;48.148;17.128;2022-07-21T09:23:13;12.75;;;3.80;;
24739;SDS011;45234;48.148;17.128;2022-07-21T09:25:42;10.48;;;3.72;;
24739;SDS011;45234;48.148;17.128;2022-07-21T09:33:32;6.47;;;3.40;;
24739;SDS011;45234;48.148;17.128;2022-07-21T09:36:05;9.57;;;3.97;;
24739;SDS011;45234;48.148;17.128;2022-07-21T09:38:42;6.45;;;4.03;;
24739;SDS011;45234;48.148;17.128;2022-07-21T09:41:17;6.22;;;3.55;;
24739;SDS011;45234;48.148;17.128;2022-07-21T09:43:47;6.38;;;3.10;;
24739;SDS011;45234;48.148;17.128;2022-07-21T09:46:18;7.43;;;3.50;;
24739;SDS011;45234;48.148;17.128;2022-07-21T09:51:37;4.75;;;2.65;;
24739;SDS011;45234;48.148;17.128;2022-07-21T09:54:07;3.45;;;2.70;;
24739;SDS011;45234;48.148;17.128;2022-07-21T09:56:45;6.75;;;2.63;;
24739;SDS011;45234;48.148;17.128;2022-07-21T09:59:14;3.97;;;2.53;;
24739;SDS011;45234;48.148;17.128;2022-07-21T10:01:41;4.97;;;3.05;;
24739;SDS011;45234;48.148;17.128;2022-07-21T10:04:09;4.63;;;2.50;;
24739;SDS011;45234;48.148;17.128;2022-07-21T10:06:38;6.85;;;2.67;;
24739;SDS011;45234;48.148;17.128;2022-07-21T10:09:11;10.40;;;2.78;;
24739;SDS011;45234;48.148;17.128;2022-07-21T10:11:43;9.75;;;3.47;;
24739;SDS011;45234;48.148;17.128;2022-07-21T10:14:10;4.07;;;3.00;;
24739;SDS011;45234;48.148;17.128;2022-07-21T10:16:38;8.68;;;2.95;;
24739;SDS011;45234;48.148;17.128;2022-07-21T10:22:08;7.30;;;2.63;;
24739;SDS011;45234;48.148;17.128;2022-07-21T10:24:40;6.45;;;2.70;;
24739;SDS011;45234;48.148;17.128;2022-07-21T10:27:09;7.53;;;3.28;;
24739;SDS011;45234;48.148;17.128;2022-07-21T10:29:56;4.38;;;2.30;;
24739;SDS011;45234;48.148;17.128;2022-07-21T10:32:31;5.63;;;2.72;;
24739;SDS011;45234;48.148;17.128;2022-07-21T10:35:27;6.72;;;2.67;;
24739;SDS011;45234;48.148;17.128;2022-07-21T10:37:56;6.57;;;2.60;;
24739;SDS011;45234;48.148;17.128;2022-07-21T10:45:39;4.43;;;3.15;;
24739;SDS011;45234;48.148;17.128;2022-07-21T10:51:10;4.75;;;3.03;;
24739;SDS011;45234;48.148;17.128;2022-07-21T10:53:39;7.97;;;3.08;;
24739;SDS011;45234;48.148;17.128;2022-07-21T10:58:54;7.22;;;2.95;;
24739;SDS011;45234;48.148;17.128;2022-07-21T11:01:22;4.10;;;2.60;;
24739;SDS011;45234;48.148;17.128;2022-07-21T11:04:12;3.90;;;2.75;;
24739;SDS011;45234;48.148;17.128;2022-07-21T11:06:44;9.70;;;3.08;;
24739;SDS011;45234;48.148;17.128;2022-07-21T11:09:15;13.82;;;3.53;;
24739;SDS011;45234;48.148;17.128;2022-07-21T11:12:01;4.45;;;2.67;;
24739;SDS011;45234;48.148;17.128;2022-07-21T11:14:40;8.10;;;2.30;;
24739;SDS011;45234;48.148;17.128;2022-07-21T11:17:10;6.30;;;2.70;;
24739;SDS011;45234;48.148;17.128;2022-07-21T11:19:51;9.70;;;2.90;;
24739;SDS011;45234;48.148;17.128;2022-07-21T11:24:49;6.40;;;2.38;;
24739;SDS011;45234;48.148;17.128;2022-07-21T11:27:30;4.78;;;2.30;;
24739;SDS011;45234;48.148;17.128;2022-07-21T11:30:03;10.63;;;3.25;;
24739;SDS011;45234;48.148;17.128;2022-07-21T11:32:35;7.90;;;2.30;;
24739;SDS011;45234;48.148;17.128;2022-07-21T11:35:04;9.98;;;2.67;;
24739;SDS011;45234;48.148;17.128;2022-07-21T11:37:38;8.00;;;2.47;;
24739;SDS011;45234;48.148;17.128;2022-07-21T11:42:40;8.85;;;3.03;;
24739;SDS011;45234;48.148;17.128;2022-07-21T11:45:10;6.70;;;2.47;;
24739;SDS011;45234;48.148;17.128;2022-07-21T11:47:38;5.93;;;2.38;;
24739;SDS011;45234;48.148;17.128;2022-07-21T11:50:07;3.28;;;2.08;;
24739;SDS011;45234;48.148;17.128;2022-07-21T11:52:39;5.28;;;2.17;;
24739;SDS011;45234;48.148;17.128;2022-07-21T11:55:09;7.13;;;2.65;;
24739;SDS011;45234;48.148;17.128;2022-07-21T11:57:43;6.53;;;2.45;;
24739;SDS011;45234;48.148;17.128;2022-07-21T12:00:15;9.68;;;2.67;;
24739;SDS011;45234;48.148;17.128;2022-07-21T12:02:47;4.15;;;2.38;;
24739;SDS011;45234;48.148;17.128;2022-07-21T12:05:15;5.82;;;2.08;;
24739;SDS011;45234;48.148;17.128;2022-07-21T12:07:43;5.85;;;2.78;;
24739;SDS011;45234;48.148;17.128;2022-07-21T12:10:14;9.82;;;2.65;;
24739;SDS011;45234;48.148;17.128;2022-07-21T12:12:56;5.00;;;2.15;;
24739;SDS011;45234;48.148;17.128;2022-07-21T12:15:32;5.43;;;2.30;;
24739;SDS011;45234;48.148;17.128;2022-07-21T12:18:05;10.13;;;2.70;;
24739;SDS011;45234;48.148;17.128;2022-07-21T12:20:35;3.95;;;2.22;;
24739;SDS011;45234;48.148;17.128;2022-07-21T12:23:23;6.72;;;2.72;;
24739;SDS011;45234;48.148;17.128;2022-07-21T12:25:55;4.57;;;2.80;;
24739;SDS011;45234;48.148;17.128;2022-07-21T12:28:42;5.40;;;2.08;;
24739;SDS011;45234;48.148;17.128;2022-07-21T12:31:15;4.00;;;1.80;;
24739;SDS011;45234;48.148;17.128;2022-07-21T12:33:49;6.13;;;2.50;;
24739;SDS011;45234;48.148;17.128;2022-07-21T12:36:37;8.85;;;2.53;;
24739;SDS011;45234;48.148;17.128;2022-07-21T12:39:15;7.72;;;2.30;;
24739;SDS011;45234;48.148;17.128;2022-07-21T12:42:08;6.47;;;2.83;;
24739;SDS011;45234;48.148;17.128;2022-07-21T12:44:53;7.30;;;2.67;;
24739;SDS011;45234;48.148;17.128;2022-07-21T12:47:21;6.65;;;2.35;;
24739;SDS011;45234;48.148;17.128;2022-07-21T12:49:55;14.73;;;2.60;;
24739;SDS011;45234;48.148;17.128;2022-07-21T12:52:42;3.17;;;1.80;;
24739;SDS011;45234;48.148;17.128;2022-07-21T12:55:11;6.35;;;2.15;;
24739;SDS011;45234;48.148;17.128;2022-07-21T12:57:38;6.18;;;1.83;;
24739;SDS011;45234;48.148;17.128;2022-07-21T13:00:05;10.68;;;2.47;;
24739;SDS011;45234;48.148;17.128;2022-07-21T13:02:44;10.52;;;2.55;;
24739;SDS011;45234;48.148;17.128;2022-07-21T13:05:13;5.35;;;2.28;;
24739;SDS011;45234;48.148;17.128;2022-07-21T13:07:40;4.75;;;2.05;;
24739;SDS011;45234;48.148;17.128;2022-07-21T13:10:07;2.80;;;1.60;;
24739;SDS011;45234;48.148;17.128;2022-07-21T13:12:35;3.42;;;1.85;;
24739;SDS011;45234;48.148;17.128;2022-07-21T13:15:03;4.10;;;1.80;;
24739;SDS011;45234;48.148;17.128;2022-07-21T13:17:30;5.68;;;1.88;;
24739;SDS011;45234;48.148;17.128;2022-07-21T13:19:59;5.28;;;2.20;;
24739;SDS011;45234;48.148;17.128;2022-07-21T13:22:32;3.65;;;1.80;;
24739;SDS011;45234;48.148;17.128;2022-07-21T13:25:00;7.43;;;2.25;;
24739;SDS011;45234;48.148;17.128;2022-07-21T13:27:29;6.53;;;2.30;;
24739;SDS011;45234;48.148;17.128;2022-07-21T13:30:01;2.40;;;1.98;;
24739;SDS011;45234;48.148;17.128;2022-07-21T13:32:56;9.52;;;2.13;;
24739;SDS011;45234;48.148;17.128;2022-07-21T13:35:56;17.65;;;2.92;;
24739;SDS011;45234;48.148;17.128;2022-07-21T13:38:27;11.68;;;2.42;;
24739;SDS011;45234;48.148;17.128;2022-07-21T13:40:54;10.05;;;2.88;;
24739;SDS011;45234;48.148;17.128;2022-07-21T13:43:52;4.45;;;2.67;;
24739;SDS011;45234;48.148;17.128;2022-07-21T13:46:20;9.45;;;1.95;;
24739;SDS011;45234;48.148;17.128;2022-07-21T13:48:47;8.48;;;2.10;;
24739;SDS011;45234;48.148;17.128;2022-07-21T13:51:15;3.60;;;1.70;;
24739;SDS011;45234;48.148;17.128;2022-07-21T13:53:44;5.18;;;1.90;;
24739;SDS011;45234;48.148;17.128;2022-07-21T13:56:13;8.68;;;1.90;;
24739;SDS011;45234;48.148;17.128;2022-07-21T13:58:41;7.32;;;2.15;;
24739;SDS011;45234;48.148;17.128;2022-07-21T14:01:10;9.85;;;2.85;;
24739;SDS011;45234;48.148;17.128;2022-07-21T14:03:41;7.55;;;2.60;;
24739;SDS011;45234;48.148;17.128;2022-07-21T14:06:09;4.47;;;2.20;;
24739;SDS011;45234;48.148;17.128;2022-07-21T14:08:37;5.88;;;2.30;;
24739;SDS011;45234;48.148;17.128;2022-07-21T14:11:05;5.95;;;2.40;;
24739;SDS011;45234;48.148;17.128;2022-07-21T14:13:39;9.85;;;2.58;;
24739;SDS011;45234;48.148;17.128;2022-07-21T14:16:12;8.40;;;2.42;;
24739;SDS011;45234;48.148;17.128;2022-07-21T14:18:39;16.83;;;2.40;;
24739;SDS011;45234;48.148;17.128;2022-07-21T14:21:07;7.07;;;2.40;;
24739;SDS011;45234;48.148;17.128;2022-07-21T14:23:34;6.85;;;2.55;;
24739;SDS011;45234;48.148;17.128;2022-07-21T14:26:03;5.00;;;2.40;;
24739;SDS011;45234;48.148;17.128;2022-07-21T14:28:30;44.80;;;4.43;;
24739;SDS011;45234;48.148;17.128;2022-07-21T14:31:42;8.52;;;2.20;;
24739;SDS011;45234;48.148;17.128;2022-07-21T14:34:12;4.03;;;2.35;;
24739;SDS011;45234;48.148;17.128;2022-07-21T14:36:39;6.07;;;2.97;;
24739;SDS011;45234;48.148;17.128;2022-07-21T14:39:06;6.32;;;2.33;;
24739;SDS011;45234;48.148;17.128;2022-07-21T14:41:33;5.43;;;2.35;;
24739;SDS011;45234;48.148;17.128;2022-07-21T14:44:01;3.45;;;1.98;;
24739;SDS011;45234;48.148;17.128;2022-07-21T14:46:29;2.17;;;1.95;;
24739;SDS011;45234;48.148;17.128;2022-07-21T14:48:56;3.15;;;2.22;;
24739;SDS011;45234;48.148;17.128;2022-07-21T14:51:24;5.85;;;2.70;;
24739;SDS011;45234;48.148;17.128;2022-07-21T14:53:51;10.05;;;2.42;;
24739;SDS011;45234;48.148;17.128;2022-07-21T14:56:18;5.20;;;2.22;;
24739;SDS011;45234;48.148;17.128;2022-07-21T14:58:46;5.72;;;2.30;;
24739;SDS011;45234;48.148;17.128;2022-07-21T15:01:13;2.78;;;2.05;;
24739;SDS011;45234;48.148;17.128;2022-07-21T15:03:41;4.43;;;2.35;;
24739;SDS011;45234;48.148;17.128;2022-07-21T15:06:09;3.22;;;2.35;;
24739;SDS011;45234;48.148;17.128;2022-07-21T15:08:36;6.60;;;2.60;;
24739;SDS011;45234;48.148;17.128;2022-07-21T15:11:04;3.88;;;2.45;;
24739;SDS011;45234;48.148;17.128;2022-07-21T15:13:31;4.10;;;2.33;;
24739;SDS011;45234;48.148;17.128;2022-07-21T15:15:58;4.05;;;2.58;;
24739;SDS011;45234;48.148;17.128;2022-07-21T15:18:26;4.82;;;2.40;;